Time;durP1;ratioP1;P1;durP2;ratioP2;P2;SDS_P1;SDS_P2;PMS_P1;PMS_P2;Temp;Humidity;BMP_temperature;BMP_pressure;BME280_temperature;BME280_humidity;BME280_pressure;Samples;Min_cycle;Max_cycle;Signal;HPM_P1;HPM_P2
2024/01/24 00:01:10;;;;;;;0.10;0.10;;;12.50;99.90;;;;;;5013319;28;20145;-72
2024/01/24 00:03:36;;;;;;;0.10;0.05;;;12.60;99.90;;;;;;5012496;28;20053;-71
2024/01/24 00:06:02;;;;;;;1.95;0.20;;;12.70;99.90;;;;;;5012280;28;20052;-71
2024/01/24 00:08:28;;;;;;;0.00;0.00;;;12.60;99.90;;;;;;5029092;28;20057;-71
2024/01/24 00:10:54;;;;;;;0.13;0.08;;;12.70;99.90;;;;;;5017580;28;20472;-71
2024/01/24 00:13:20;;;;;;;0.10;0.10;;;12.70;99.90;;;;;;5013445;28;20080;-71
2024/01/24 00:15:46;;;;;;;0.55;0.30;;;12.70;99.90;;;;;;5013117;28;20080;-71
2024/01/24 00:18:11;;;;;;;1.63;0.57;;;12.70;99.90;;;;;;5013861;28;20504;-67
2024/01/24 00:20:37;;;;;;;0.20;0.20;;;12.70;99.90;;;;;;5012858;28;20049;-70
2024/01/24 00:23:03;;;;;;;0.43;0.35;;;12.70;99.90;;;;;;5009007;28;20041;-71
2024/01/24 00:25:28;;;;;;;2.92;0.30;;;12.70;99.90;;;;;;5012509;28;20045;-70
2024/01/24 00:27:54;;;;;;;2.08;0.43;;;12.70;99.90;;;;;;5013380;28;20415;-71
2024/01/24 00:30:20;;;;;;;0.95;0.65;;;12.80;99.90;;;;;;5013551;28;20037;-71
2024/01/24 00:32:46;;;;;;;2.15;0.30;;;12.80;99.90;;;;;;5012722;28;20037;-72
2024/01/24 00:35:11;;;;;;;0.10;0.10;;;12.80;99.90;;;;;;4997468;28;20076;-71
2024/01/24 00:37:37;;;;;;;0.73;0.10;;;12.90;99.90;;;;;;5012724;28;20092;-72
2024/01/24 00:40:03;;;;;;;1.85;0.38;;;12.90;99.90;;;;;;5013436;28;20366;-72
2024/01/24 00:42:29;;;;;;;0.43;0.43;;;12.90;99.90;;;;;;5011092;28;20048;-73
2024/01/24 00:44:55;;;;;;;0.20;0.10;;;12.90;99.90;;;;;;5013904;28;20053;-72
2024/01/24 00:47:21;;;;;;;0.40;0.10;;;12.90;99.90;;;;;;5001699;28;20072;-73
2024/01/24 00:49:47;;;;;;;7.70;0.30;;;12.80;99.90;;;;;;4996553;28;20042;-72
2024/01/24 00:52:12;;;;;;;0.50;0.30;;;12.90;99.90;;;;;;5009647;28;20048;-72
2024/01/24 00:54:38;;;;;;;1.55;0.32;;;12.90;99.90;;;;;;5011475;28;20037;-72
2024/01/24 00:57:04;;;;;;;0.10;0.10;;;12.90;99.90;;;;;;5009611;28;20405;-74
2024/01/24 00:59:30;;;;;;;0.05;0.05;;;12.90;99.90;;;;;;5008722;28;20120;-72
2024/01/24 01:01:56;;;;;;;2.00;0.30;;;13.00;99.90;;;;;;5012849;28;20051;-73
2024/01/24 01:04:22;;;;;;;1.23;0.10;;;13.10;99.90;;;;;;5004506;28;20048;-73
2024/01/24 01:06:48;;;;;;;0.90;0.30;;;13.00;99.90;;;;;;5011449;28;20120;-73
2024/01/24 01:09:14;;;;;;;2.45;0.22;;;13.00;99.90;;;;;;5016220;28;20049;-71
2024/01/24 01:11:39;;;;;;;0.22;0.10;;;13.00;99.90;;;;;;4997886;28;20509;-73
2024/01/24 01:14:05;;;;;;;0.10;0.10;;;13.00;99.90;;;;;;5011533;28;20041;-73
2024/01/24 01:16:31;;;;;;;1.38;0.32;;;13.10;99.90;;;;;;5010347;28;20140;-72
2024/01/24 01:18:57;;;;;;;2.03;0.08;;;13.10;99.90;;;;;;4995613;28;20438;-73
2024/01/24 01:21:22;;;;;;;0.70;0.17;;;13.10;99.90;;;;;;5017129;28;20033;-72
2024/01/24 01:23:48;;;;;;;2.83;0.30;;;13.10;99.90;;;;;;5011461;28;20079;-73
2024/01/24 01:26:14;;;;;;;1.35;0.10;;;13.20;99.90;;;;;;5012400;28;20095;-73
2024/01/24 01:28:39;;;;;;;0.03;0.03;;;13.10;99.90;;;;;;5010095;28;20038;-74
2024/01/24 01:31:05;;;;;;;0.75;0.40;;;13.10;99.90;;;;;;5012783;28;20041;-72
2024/01/24 01:33:31;;;;;;;0.10;0.00;;;13.10;99.90;;;;;;4994256;28;20033;-73
2024/01/24 01:35:56;;;;;;;2.25;0.32;;;13.10;99.90;;;;;;5010986;28;20188;-72
2024/01/24 01:38:22;;;;;;;1.17;0.32;;;13.10;99.90;;;;;;5010735;28;20056;-73
2024/01/24 01:40:48;;;;;;;3.08;0.20;;;13.10;99.90;;;;;;5030103;28;20080;-73
2024/01/24 01:43:15;;;;;;;1.77;0.22;;;13.10;99.90;;;;;;5009004;28;20048;-74
2024/01/24 01:45:41;;;;;;;0.95;0.25;;;13.20;99.90;;;;;;5000443;28;20041;-74
2024/01/24 01:48:11;;;;;;;3.03;0.20;;;13.10;99.90;;;;;;5010515;28;20047;-73
2024/01/24 01:50:38;;;;;;;0.00;0.00;;;13.20;99.90;;;;;;5027417;28;20104;-73
2024/01/24 01:53:05;;;;;;;5.85;0.20;;;13.10;99.90;;;;;;5011083;28;20075;-73
2024/01/24 01:55:33;;;;;;;0.00;0.00;;;13.10;99.90;;;;;;5001024;28;20044;-74
2024/01/24 01:58:00;;;;;;;0.90;0.00;;;13.10;99.90;;;;;;5012246;28;20048;-73
2024/01/24 02:00:26;;;;;;;0.47;0.22;;;13.10;99.90;;;;;;5028493;28;20041;-73
2024/01/24 02:02:53;;;;;;;0.95;0.20;;;13.10;99.90;;;;;;5012352;28;20033;-73
2024/01/24 02:05:19;;;;;;;0.65;0.10;;;13.00;99.90;;;;;;5012551;28;20558;-72
2024/01/24 02:07:45;;;;;;;0.00;0.00;;;13.00;99.90;;;;;;5002647;28;20210;-74
2024/01/24 02:10:14;;;;;;;0.10;0.00;;;13.10;99.90;;;;;;4992426;28;20049;-72
2024/01/24 02:12:41;;;;;;;0.75;0.13;;;13.00;99.90;;;;;;4990119;28;20121;-73
2024/01/24 02:15:08;;;;;;;0.10;0.00;;;13.10;99.90;;;;;;5005873;28;20117;-73
2024/01/24 02:17:35;;;;;;;2.00;0.30;;;13.10;99.90;;;;;;4992483;28;20042;-71
2024/01/24 02:20:01;;;;;;;0.90;0.20;;;13.10;99.90;;;;;;4991792;28;20179;-74
2024/01/24 02:22:26;;;;;;;0.38;0.25;;;13.10;99.90;;;;;;4990191;28;20486;-73
2024/01/24 02:24:52;;;;;;;0.52;0.00;;;13.10;99.90;;;;;;4990969;28;20049;-75
2024/01/24 02:27:18;;;;;;;0.22;0.00;;;13.10;99.90;;;;;;4975245;28;20034;-73
2024/01/24 02:29:44;;;;;;;0.00;0.00;;;13.10;99.90;;;;;;4991337;28;20049;-73
2024/01/24 02:32:10;;;;;;;0.15;0.00;;;13.10;99.90;;;;;;4976131;28;20457;-73
2024/01/24 02:34:35;;;;;;;0.35;0.10;;;13.10;99.90;;;;;;4991425;28;20037;-72
2024/01/24 02:37:01;;;;;;;0.05;0.00;;;13.10;99.90;;;;;;4995402;28;20409;-73
2024/01/24 02:39:27;;;;;;;1.35;0.30;;;13.10;99.90;;;;;;4990357;28;20038;-73
2024/01/24 02:41:53;;;;;;;3.80;0.40;;;13.00;99.90;;;;;;4992028;28;20045;-71
2024/01/24 02:44:18;;;;;;;2.13;0.30;;;13.00;99.90;;;;;;4975274;28;20042;-74
2024/01/24 02:46:44;;;;;;;2.05;0.00;;;13.00;99.90;;;;;;4991887;28;20383;-73
2024/01/24 02:49:10;;;;;;;1.48;0.30;;;12.90;99.90;;;;;;4991003;28;20085;-73
2024/01/24 02:51:36;;;;;;;0.50;0.10;;;12.80;99.90;;;;;;4992193;28;20388;-73
2024/01/24 02:54:02;;;;;;;0.25;0.20;;;12.70;99.90;;;;;;4973460;28;20038;-72
2024/01/24 02:56:28;;;;;;;1.60;0.10;;;12.60;99.90;;;;;;4990103;28;20041;-73
2024/01/24 02:58:54;;;;;;;0.08;0.08;;;12.40;99.90;;;;;;4990698;28;20074;-73
2024/01/24 03:01:19;;;;;;;0.00;0.00;;;12.30;99.90;;;;;;4987457;28;20469;-73
2024/01/24 03:03:45;;;;;;;6.38;1.25;;;12.20;99.90;;;;;;4992258;28;20041;-70
2024/01/24 03:06:11;;;;;;;0.45;0.32;;;12.10;99.90;;;;;;4987584;28;20042;-74
2024/01/24 03:08:50;;;;;;;1.73;0.20;;;12.10;99.90;;;;;;5005651;28;20058;-73
2024/01/24 03:11:16;;;;;;;2.83;0.52;;;12.00;99.90;;;;;;5009493;28;20038;-73
2024/01/24 03:13:42;;;;;;;1.13;0.47;;;12.00;99.90;;;;;;5013952;28;20069;-74
2024/01/24 03:16:09;;;;;;;1.75;0.10;;;12.00;99.90;;;;;;5014343;28;20080;-73
2024/01/24 03:18:38;;;;;;;0.05;0.05;;;12.00;99.90;;;;;;5014440;28;20152;-74
2024/01/24 03:21:09;;;;;;;0.10;0.10;;;11.90;99.90;;;;;;5004114;28;20041;-72
2024/01/24 03:23:38;;;;;;;3.90;0.73;;;11.90;99.90;;;;;;5023512;28;20128;-71
2024/01/24 03:26:06;;;;;;;0.90;0.35;;;11.90;99.90;;;;;;5015153;28;20432;-73
2024/01/24 03:28:33;;;;;;;5.18;1.45;;;11.80;99.90;;;;;;5013917;28;20044;-73
2024/01/24 03:30:59;;;;;;;1.42;0.65;;;11.80;99.90;;;;;;5015823;28;20042;-72
2024/01/24 03:33:25;;;;;;;3.75;0.50;;;11.80;99.90;;;;;;5012838;28;20620;-73
2024/01/24 03:35:51;;;;;;;3.60;0.60;;;11.80;99.90;;;;;;5014077;28;20170;-73
2024/01/24 03:38:17;;;;;;;2.42;0.20;;;11.80;99.90;;;;;;4997352;28;20108;-74
2024/01/24 03:40:43;;;;;;;2.63;0.73;;;11.80;99.90;;;;;;5013564;28;20041;-73
2024/01/24 03:43:10;;;;;;;1.45;0.15;;;11.80;99.90;;;;;;5002957;28;20127;-73
2024/01/24 03:45:37;;;;;;;1.33;0.30;;;11.80;99.90;;;;;;5019997;28;20080;-74
2024/01/24 03:48:04;;;;;;;2.17;0.50;;;11.80;99.90;;;;;;5012993;28;20047;-72
2024/01/24 03:50:29;;;;;;;7.13;0.68;;;11.80;99.90;;;;;;5015107;28;20100;-74
2024/01/24 03:52:55;;;;;;;8.32;0.93;;;11.80;99.90;;;;;;4997126;28;20504;-74
2024/01/24 03:55:21;;;;;;;0.70;0.40;;;11.80;99.90;;;;;;5018219;28;20095;-73
2024/01/24 03:57:46;;;;;;;3.38;0.70;;;11.80;99.90;;;;;;5011437;28;20124;-74
2024/01/24 04:00:13;;;;;;;10.10;1.05;;;11.90;99.90;;;;;;5017515;28;20120;-75
2024/01/24 04:02:40;;;;;;;5.05;0.20;;;11.90;99.90;;;;;;5014111;28;20097;-74
2024/01/24 04:05:06;;;;;;;7.40;0.88;;;11.90;99.90;;;;;;5012996;28;20072;-74
2024/01/24 04:07:32;;;;;;;2.30;0.85;;;11.90;99.90;;;;;;5013013;28;20061;-74
2024/01/24 04:09:59;;;;;;;2.25;0.38;;;11.90;99.90;;;;;;5003407;28;20378;-74
2024/01/24 04:12:24;;;;;;;7.68;0.80;;;12.00;99.90;;;;;;4992734;28;20440;-74
2024/01/24 04:14:50;;;;;;;4.57;0.50;;;11.90;99.90;;;;;;5013878;28;20037;-74
2024/01/24 04:17:16;;;;;;;3.30;1.50;;;12.00;99.90;;;;;;5013139;28;20069;-73
2024/01/24 04:19:42;;;;;;;8.23;0.90;;;12.00;99.90;;;;;;4998954;28;20068;-75
2024/01/24 04:22:08;;;;;;;2.40;0.15;;;12.00;99.90;;;;;;5019989;28;20382;-75
2024/01/24 04:24:34;;;;;;;0.65;0.22;;;12.00;99.90;;;;;;5003246;28;20037;-72
2024/01/24 04:27:00;;;;;;;4.38;0.40;;;12.00;99.90;;;;;;5012856;28;20516;-74
2024/01/24 04:29:26;;;;;;;3.33;1.02;;;12.00;99.90;;;;;;5022603;28;20045;-75
2024/01/24 04:31:52;;;;;;;7.03;0.70;;;12.00;99.90;;;;;;5012988;28;20047;-74
2024/01/24 04:34:17;;;;;;;5.38;0.47;;;12.10;99.90;;;;;;5018634;28;20064;-74
2024/01/24 04:36:46;;;;;;;5.63;0.38;;;12.10;99.90;;;;;;4999456;28;20043;-76
2024/01/24 04:39:12;;;;;;;9.15;0.82;;;12.00;99.90;;;;;;5012737;28;20038;-76
2024/01/24 04:41:38;;;;;;;4.28;0.90;;;12.00;99.90;;;;;;4996635;28;20038;-76
2024/01/24 04:44:04;;;;;;;3.95;0.30;;;12.00;99.90;;;;;;5014008;28;20049;-76
2024/01/24 04:46:30;;;;;;;1.95;0.60;;;12.00;99.90;;;;;;5012615;28;20068;-76
2024/01/24 04:48:56;;;;;;;6.63;1.55;;;12.00;99.90;;;;;;4997108;28;20057;-73
2024/01/24 04:51:22;;;;;;;3.80;1.27;;;12.00;99.90;;;;;;5013089;28;20121;-76
2024/01/24 04:53:48;;;;;;;4.70;0.75;;;11.90;99.90;;;;;;5012389;28;20043;-75
2024/01/24 04:56:14;;;;;;;4.18;0.50;;;11.90;99.90;;;;;;5016464;28;20353;-76
2024/01/24 04:58:42;;;;;;;11.27;1.05;;;11.80;99.90;;;;;;5011045;28;20123;-75
2024/01/24 05:01:08;;;;;;;3.63;1.25;;;11.70;99.90;;;;;;5006623;28;20049;-77
2024/01/24 05:03:34;;;;;;;3.88;0.85;;;11.70;99.90;;;;;;5012734;28;20508;-74
2024/01/24 05:06:00;;;;;;;6.82;0.70;;;11.70;99.90;;;;;;5009427;28;20046;-73
2024/01/24 05:08:25;;;;;;;7.18;1.42;;;11.70;99.90;;;;;;5011006;28;20116;-74
2024/01/24 05:10:51;;;;;;;2.78;0.65;;;11.80;99.90;;;;;;4994738;28;20584;-76
2024/01/24 05:13:18;;;;;;;11.65;0.80;;;11.70;99.90;;;;;;4996661;28;20076;-74
2024/01/24 05:15:43;;;;;;;5.53;1.58;;;11.70;99.90;;;;;;5010261;28;20099;-76
2024/01/24 05:18:09;;;;;;;0.60;0.25;;;11.70;99.90;;;;;;5006939;28;20041;-75
2024/01/24 05:20:37;;;;;;;11.65;1.60;;;11.70;99.90;;;;;;5009782;28;20128;-76
2024/01/24 05:23:03;;;;;;;6.10;1.30;;;11.60;99.90;;;;;;5011350;28;20041;-74
2024/01/24 05:25:32;;;;;;;13.07;1.45;;;11.50;99.90;;;;;;5028415;28;20171;-73
2024/01/24 05:27:59;;;;;;;14.73;1.98;;;11.50;99.90;;;;;;5004790;28;20045;-76
2024/01/24 05:30:25;;;;;;;10.00;1.48;;;11.40;99.90;;;;;;4996266;28;20041;-75
2024/01/24 05:32:54;;;;;;;2.90;0.80;;;11.40;99.90;;;;;;5011692;28;20041;-75
2024/01/24 05:35:20;;;;;;;14.20;1.95;;;11.40;99.90;;;;;;5029063;28;20044;-77
2024/01/24 05:37:46;;;;;;;2.42;1.60;;;11.30;99.90;;;;;;5010754;28;20145;-77
2024/01/24 05:40:12;;;;;;;7.38;1.33;;;11.30;99.90;;;;;;5011743;28;20037;-77
2024/01/24 05:42:38;;;;;;;7.72;1.35;;;11.20;99.90;;;;;;5012116;28;20120;-76
2024/01/24 05:45:05;;;;;;;8.50;0.98;;;11.20;99.90;;;;;;5012503;28;20129;-77
2024/01/24 05:47:31;;;;;;;4.88;0.85;;;11.10;99.90;;;;;;4999067;28;20397;-76
2024/01/24 05:49:58;;;;;;;9.40;2.00;;;11.10;99.90;;;;;;5000067;28;20128;-78
2024/01/24 05:52:24;;;;;;;5.43;1.42;;;11.10;99.90;;;;;;5009854;28;20037;-78
2024/01/24 05:54:50;;;;;;;6.70;1.17;;;11.10;99.90;;;;;;5016163;28;20033;-77
2024/01/24 05:57:16;;;;;;;8.68;1.30;;;11.10;99.90;;;;;;5017190;28;20041;-78
2024/01/24 05:59:41;;;;;;;21.65;1.65;;;11.10;99.90;;;;;;5009850;28;20033;-80
2024/01/24 06:02:07;;;;;;;4.38;0.52;;;11.10;99.90;;;;;;5000148;28;20038;-77
2024/01/24 06:04:33;;;;;;;8.35;1.55;;;11.00;99.90;;;;;;5009478;28;20123;-77
2024/01/24 06:07:01;;;;;;;9.50;1.50;;;11.00;99.90;;;;;;5009064;28;20048;-77
2024/01/24 06:09:28;;;;;;;4.88;0.95;;;11.00;99.90;;;;;;5015128;28;20188;-78
2024/01/24 06:11:53;;;;;;;5.18;1.17;;;11.10;99.90;;;;;;5010136;28;20056;-76
2024/01/24 06:14:19;;;;;;;9.27;1.30;;;11.00;99.90;;;;;;5009230;28;20489;-76
2024/01/24 06:16:45;;;;;;;6.00;1.42;;;11.00;99.90;;;;;;5011150;28;20045;-76
2024/01/24 06:19:11;;;;;;;4.10;1.73;;;11.00;99.90;;;;;;5010315;28;20052;-79
2024/01/24 06:21:37;;;;;;;13.35;1.80;;;11.00;99.90;;;;;;5003566;28;20037;-77
2024/01/24 06:24:06;;;;;;;8.90;2.40;;;11.00;99.90;;;;;;5010408;28;20405;-77
2024/01/24 06:26:31;;;;;;;3.65;1.15;;;11.00;99.90;;;;;;5010523;28;20057;-77
2024/01/24 06:28:57;;;;;;;7.68;0.63;;;10.90;99.90;;;;;;5011640;28;20037;-77
2024/01/24 06:31:23;;;;;;;11.15;1.80;;;10.90;99.90;;;;;;5011666;28;20045;-76
2024/01/24 06:33:49;;;;;;;11.07;1.40;;;10.90;99.90;;;;;;5012268;28;20041;-76
2024/01/24 06:36:14;;;;;;;7.47;1.63;;;11.00;99.90;;;;;;5004716;28;20067;-77
2024/01/24 06:38:40;;;;;;;14.40;1.92;;;11.00;99.90;;;;;;5016708;28;20034;-77
2024/01/24 06:41:06;;;;;;;9.02;1.02;;;11.00;99.90;;;;;;5011010;28;20041;-77
2024/01/24 06:43:32;;;;;;;6.38;1.75;;;11.00;99.90;;;;;;4994696;28;20048;-77
2024/01/24 06:45:57;;;;;;;6.40;1.55;;;11.00;99.90;;;;;;5002962;28;20041;-77
2024/01/24 06:48:23;;;;;;;11.98;1.25;;;11.00;99.90;;;;;;5006725;28;20116;-76
2024/01/24 06:50:49;;;;;;;9.10;1.23;;;10.90;99.90;;;;;;5012200;28;20409;-78
2024/01/24 06:53:14;;;;;;;6.50;1.55;;;10.90;99.90;;;;;;4996245;28;20037;-78
2024/01/24 06:55:41;;;;;;;8.75;1.58;;;11.00;99.90;;;;;;5010005;28;20033;-77
2024/01/24 06:58:25;;;;;;;6.40;0.65;;;10.90;99.90;;;;;;4998658;28;20041;-77
2024/01/24 07:00:50;;;;;;;8.02;2.00;;;10.90;99.90;;;;;;4991669;28;20064;-77
2024/01/24 07:03:16;;;;;;;20.73;2.03;;;10.90;99.90;;;;;;4994368;28;20081;-77
2024/01/24 07:05:43;;;;;;;13.43;2.22;;;10.90;99.90;;;;;;5010426;28;20450;-78
2024/01/24 07:08:09;;;;;;;10.25;1.50;;;10.90;99.90;;;;;;5007489;28;20149;-76
2024/01/24 07:10:35;;;;;;;6.75;1.27;;;10.90;99.90;;;;;;5005552;28;20124;-76
2024/01/24 07:13:00;;;;;;;14.77;1.90;;;10.90;99.90;;;;;;5012226;28;20805;-75
2024/01/24 07:15:26;;;;;;;12.68;2.42;;;10.90;99.90;;;;;;5016588;28;20045;-76
2024/01/24 07:17:52;;;;;;;5.45;0.90;;;10.90;99.90;;;;;;5002331;28;20041;-74
2024/01/24 07:20:18;;;;;;;7.90;1.35;;;10.90;99.90;;;;;;5011065;28;20038;-76
2024/01/24 07:22:44;;;;;;;8.77;2.28;;;10.90;99.90;;;;;;5006262;28;20532;-76
2024/01/24 07:25:09;;;;;;;16.55;1.98;;;11.00;99.90;;;;;;4989906;28;20493;-75
2024/01/24 07:27:35;;;;;;;9.45;1.42;;;11.00;99.90;;;;;;5020578;28;20037;-76
2024/01/24 07:30:04;;;;;;;11.98;1.98;;;11.10;99.90;;;;;;5007545;28;20048;-77
2024/01/24 07:32:31;;;;;;;10.65;1.23;;;11.10;99.90;;;;;;5011585;28;20045;-75
2024/01/24 07:34:58;;;;;;;8.50;1.52;;;11.10;99.90;;;;;;5007322;28;20065;-75
2024/01/24 07:37:23;;;;;;;9.70;1.17;;;11.10;99.90;;;;;;5000561;28;20045;-77
2024/01/24 07:39:49;;;;;;;5.80;0.95;;;11.20;99.90;;;;;;5009469;28;20036;-78
2024/01/24 07:42:15;;;;;;;11.98;1.65;;;11.20;99.90;;;;;;5020512;28;20041;-78
2024/01/24 07:44:40;;;;;;;13.40;2.45;;;11.10;99.90;;;;;;5009942;28;20037;-76
2024/01/24 07:47:06;;;;;;;7.10;1.55;;;11.10;99.90;;;;;;5002388;28;20033;-77
2024/01/24 07:49:33;;;;;;;7.28;1.95;;;11.00;99.90;;;;;;4999928;28;20037;-75
2024/01/24 07:52:00;;;;;;;16.55;2.08;;;11.00;99.90;;;;;;4994274;28;20513;-77
2024/01/24 07:54:25;;;;;;;5.40;0.77;;;11.00;99.90;;;;;;4992607;28;20041;-78
2024/01/24 07:56:53;;;;;;;6.57;1.65;;;11.00;99.90;;;;;;5012338;28;20034;-74
2024/01/24 07:59:19;;;;;;;10.65;1.27;;;10.90;99.90;;;;;;5007620;28;20041;-76
2024/01/24 08:01:48;;;;;;;11.32;2.28;;;11.00;99.90;;;;;;5011727;28;20493;-76
2024/01/24 08:04:14;;;;;;;4.22;1.65;;;10.90;99.90;;;;;;5013821;28;20059;-76
2024/01/24 08:06:41;;;;;;;12.82;3.03;;;10.90;99.90;;;;;;5010514;28;20532;-76
2024/01/24 08:09:08;;;;;;;19.40;2.47;;;10.90;99.90;;;;;;5012560;28;20050;-76
2024/01/24 08:11:34;;;;;;;8.52;1.42;;;10.80;99.90;;;;;;5010446;28;20053;-80
2024/01/24 08:13:59;;;;;;;5.47;2.47;;;10.80;99.90;;;;;;5015682;28;20041;-77
2024/01/24 08:16:25;;;;;;;18.95;2.72;;;10.80;99.90;;;;;;5023838;28;20550;-79
2024/01/24 08:18:52;;;;;;;8.23;1.77;;;10.80;99.90;;;;;;5011786;28;20041;-78
2024/01/24 08:21:18;;;;;;;7.53;1.60;;;10.70;99.90;;;;;;5011673;28;20106;-78
2024/01/24 08:23:44;;;;;;;4.75;1.02;;;10.80;99.90;;;;;;5011591;28;20389;-77
2024/01/24 08:26:09;;;;;;;8.55;1.60;;;10.70;99.90;;;;;;5011887;28;20471;-78
2024/01/24 08:28:35;;;;;;;3.38;1.25;;;10.70;99.90;;;;;;5018795;28;20552;-78
2024/01/24 08:31:01;;;;;;;7.47;1.48;;;10.70;99.90;;;;;;5003099;28;20049;-78
2024/01/24 08:33:27;;;;;;;12.70;1.73;;;10.70;99.90;;;;;;5013224;28;20117;-79
2024/01/24 08:35:52;;;;;;;6.43;1.63;;;10.70;99.90;;;;;;5013037;28;20501;-77
2024/01/24 08:38:18;;;;;;;10.05;2.10;;;10.80;99.90;;;;;;5005091;28;20033;-77
2024/01/24 08:40:44;;;;;;;15.50;2.85;;;10.80;99.90;;;;;;5008429;28;20056;-78
2024/01/24 08:43:09;;;;;;;11.43;2.05;;;10.80;99.90;;;;;;5011281;28;20116;-78
2024/01/24 08:45:35;;;;;;;8.23;2.33;;;10.80;99.90;;;;;;5020996;28;20571;-78
2024/01/24 08:48:01;;;;;;;11.30;1.30;;;10.80;99.90;;;;;;5028524;28;20044;-79
2024/01/24 08:50:27;;;;;;;5.25;1.77;;;10.80;99.90;;;;;;4999468;28;20050;-79
2024/01/24 08:52:52;;;;;;;12.77;1.90;;;10.90;99.90;;;;;;4998519;28;20046;-78
2024/01/24 08:55:18;;;;;;;15.60;1.20;;;10.80;99.90;;;;;;5016108;28;20042;-78
2024/01/24 08:57:44;;;;;;;5.70;1.17;;;10.80;99.90;;;;;;5013554;28;20048;-78
2024/01/24 09:00:11;;;;;;;5.80;1.55;;;10.90;99.90;;;;;;5011927;28;20231;-80
2024/01/24 09:02:37;;;;;;;7.88;1.35;;;10.90;99.90;;;;;;5012013;28;20045;-81
2024/01/24 09:05:03;;;;;;;24.80;3.20;;;10.90;99.90;;;;;;4996787;28;20048;-78
2024/01/24 09:07:29;;;;;;;11.93;1.27;;;10.90;99.90;;;;;;5012084;28;20138;-78
2024/01/24 09:09:55;;;;;;;10.85;1.52;;;11.00;99.90;;;;;;5012790;28;20085;-79
2024/01/24 09:12:21;;;;;;;5.05;1.35;;;11.10;99.90;;;;;;5011955;28;20085;-81
2024/01/24 09:14:47;;;;;;;8.00;1.15;;;11.10;99.90;;;;;;5011983;28;20551;-78
2024/01/24 09:17:13;;;;;;;7.07;0.93;;;11.10;99.90;;;;;;5018801;28;20034;-80
2024/01/24 09:19:42;;;;;;;2.80;0.77;;;11.20;99.90;;;;;;5002915;28;20338;-81
2024/01/24 09:22:09;;;;;;;7.70;2.67;;;11.60;99.90;;;;;;5024521;28;20037;-77
2024/01/24 09:24:35;;;;;;;8.25;3.53;;;11.90;99.90;;;;;;5011950;28;20095;-80
2024/01/24 09:27:03;;;;;;;7.38;1.13;;;11.90;99.90;;;;;;5010148;28;20075;-80
2024/01/24 09:29:29;;;;;;;9.05;1.23;;;11.90;99.90;;;;;;5010797;28;20077;-80
2024/01/24 09:31:54;;;;;;;13.18;2.08;;;11.90;99.90;;;;;;5011463;28;20109;-79
2024/01/24 09:34:20;;;;;;;13.40;2.35;;;11.90;99.90;;;;;;5011202;28;20084;-80
2024/01/24 09:36:47;;;;;;;7.68;1.05;;;11.70;99.90;;;;;;5012621;28;20481;-80
2024/01/24 09:39:12;;;;;;;11.48;1.55;;;11.60;99.90;;;;;;5024538;28;20096;-80
2024/01/24 09:41:40;;;;;;;7.55;1.50;;;11.60;99.90;;;;;;5006266;28;20606;-82
2024/01/24 09:44:09;;;;;;;3.33;0.95;;;11.60;99.90;;;;;;5012936;28;20049;-80
2024/01/24 09:46:42;;;;;;;12.93;2.17;;;11.50;99.90;;;;;;4996913;28;20473;-80
2024/01/24 09:49:09;;;;;;;9.95;2.00;;;11.60;99.90;;;;;;4994885;28;20045;-79
2024/01/24 09:51:35;;;;;;;8.02;2.53;;;11.50;99.90;;;;;;5008477;28;20038;-79
2024/01/24 09:54:08;;;;;;;8.13;1.35;;;11.40;99.90;;;;;;5010178;28;20044;-79
2024/01/24 09:56:36;;;;;;;18.73;2.25;;;11.60;99.90;;;;;;5027479;28;20038;-80
2024/01/24 09:59:08;;;;;;;11.35;2.35;;;12.00;99.90;;;;;;5024929;28;20041;-77
2024/01/24 10:01:35;;;;;;;7.38;2.00;;;12.30;99.90;;;;;;4995394;28;20038;-76
2024/01/24 10:04:02;;;;;;;6.40;0.98;;;12.60;99.90;;;;;;5010815;28;20049;-79
2024/01/24 10:06:28;;;;;;;15.43;2.85;;;12.70;99.90;;;;;;5013590;28;20034;-80
2024/01/24 10:08:57;;;;;;;8.27;1.67;;;12.90;99.90;;;;;;5000964;28;20072;-80
2024/01/24 10:11:26;;;;;;;7.50;1.75;;;13.10;99.90;;;;;;5018409;28;20469;-81
2024/01/24 10:13:59;;;;;;;13.80;1.70;;;13.20;99.90;;;;;;4995769;28;20521;-78
2024/01/24 10:16:26;;;;;;;6.70;1.23;;;13.10;99.90;;;;;;5011895;28;20092;-81
2024/01/24 10:18:55;;;;;;;7.38;1.70;;;12.70;99.90;;;;;;5010435;28;20037;-81
2024/01/24 10:21:21;;;;;;;4.13;1.02;;;12.40;99.90;;;;;;5012894;28;20434;-80
2024/01/24 10:23:47;;;;;;;5.75;1.30;;;12.30;99.90;;;;;;4997538;28;20493;-77
2024/01/24 10:26:14;;;;;;;12.60;1.30;;;12.10;99.90;;;;;;5009171;28;20041;-79
2024/01/24 10:28:42;;;;;;;6.15;0.70;;;11.90;99.90;;;;;;5011400;28;20037;-80
2024/01/24 10:31:09;;;;;;;5.40;1.52;;;11.90;99.90;;;;;;5011131;28;20485;-78
2024/01/24 10:33:35;;;;;;;3.30;1.08;;;11.80;99.90;;;;;;5011351;28;20029;-79
2024/01/24 10:36:01;;;;;;;6.35;1.50;;;11.80;99.90;;;;;;5008816;28;20072;-78
2024/01/24 10:38:33;;;;;;;9.70;1.85;;;11.80;99.90;;;;;;5009186;28;20497;-79
2024/01/24 10:41:00;;;;;;;3.83;0.73;;;11.80;99.90;;;;;;5010773;28;20045;-79
2024/01/24 10:43:27;;;;;;;11.45;1.77;;;11.80;99.90;;;;;;5010014;28;20463;-80
2024/01/24 10:45:54;;;;;;;6.72;0.73;;;11.80;99.90;;;;;;4993607;28;20126;-80
2024/01/24 10:48:20;;;;;;;4.63;1.23;;;11.80;99.90;;;;;;5008662;28;20045;-78
2024/01/24 10:50:47;;;;;;;8.73;0.68;;;11.80;99.90;;;;;;4994592;28;20037;-80
2024/01/24 10:53:14;;;;;;;8.82;1.05;;;11.70;99.90;;;;;;4993983;28;20064;-81
2024/01/24 10:55:41;;;;;;;5.80;1.38;;;11.70;99.90;;;;;;4995117;28;20112;-81
2024/01/24 10:58:11;;;;;;;6.00;0.85;;;11.70;99.90;;;;;;5011361;28;20499;-81
2024/01/24 11:00:39;;;;;;;4.90;1.73;;;11.70;99.90;;;;;;5001612;28;20033;-77
2024/01/24 11:03:07;;;;;;;3.05;0.80;;;11.80;99.90;;;;;;5010200;28;20049;-80
2024/01/24 11:05:55;;;;;;;5.38;0.77;;;11.80;99.90;;;;;;5002234;28;20046;-82
2024/01/24 11:09:20;;;;;;;7.30;1.67;;;11.80;99.90;;;;;;5001826;28;20533;-81
2024/01/24 11:11:48;;;;;;;3.80;0.73;;;11.80;99.90;;;;;;4950072;28;20431;-81
2024/01/24 11:14:36;;;;;;;10.35;1.05;;;11.70;99.90;;;;;;4952114;28;20039;-82
2024/01/24 11:17:03;;;;;;;3.75;0.40;;;11.70;99.90;;;;;;4995761;28;20046;-82
2024/01/24 11:19:30;;;;;;;8.70;1.05;;;11.70;99.90;;;;;;5010937;28;20436;-80
2024/01/24 11:22:06;;;;;;;3.00;1.20;;;11.70;99.90;;;;;;5000706;28;20528;-81
2024/01/24 11:24:41;;;;;;;14.00;2.15;;;11.70;99.90;;;;;;4992159;28;20192;-79
2024/01/24 11:27:32;;;;;;;3.42;0.40;;;11.60;99.90;;;;;;5020933;28;20045;-81
2024/01/24 11:30:05;;;;;;;3.00;1.15;;;11.70;99.90;;;;;;4992194;28;20141;-80
2024/01/24 11:33:04;;;;;;;6.40;1.63;;;11.70;99.90;;;;;;5011039;28;20136;-79
2024/01/24 11:35:38;;;;;;;4.40;1.10;;;11.70;99.90;;;;;;5002351;28;20404;-82
2024/01/24 11:38:16;;;;;;;10.18;1.85;;;11.70;99.90;;;;;;5012554;28;20099;-82
2024/01/24 11:40:43;;;;;;;4.38;0.95;;;11.70;99.90;;;;;;5020585;28;20119;-78
2024/01/24 11:43:22;;;;;;;9.18;1.33;;;11.80;99.90;;;;;;5013243;28;20421;-80
2024/01/24 11:45:50;;;;;;;5.40;0.95;;;11.70;99.90;;;;;;5024861;28;20120;-78
2024/01/24 11:48:16;;;;;;;5.03;1.33;;;11.80;99.90;;;;;;5016018;28;20055;-82
2024/01/24 11:50:43;;;;;;;7.72;0.85;;;11.90;99.90;;;;;;5017408;28;20049;-80
2024/01/24 11:53:09;;;;;;;6.93;0.77;;;11.90;99.90;;;;;;5004010;28;20096;-81
2024/01/24 11:55:35;;;;;;;1.80;0.60;;;11.80;99.90;;;;;;5013063;28;20041;-81
2024/01/24 11:58:03;;;;;;;5.25;0.68;;;11.80;99.90;;;;;;5022144;28;20037;-81
2024/01/24 12:00:30;;;;;;;3.53;0.63;;;11.70;99.90;;;;;;4998348;28;20046;-77
2024/01/24 12:02:55;;;;;;;5.35;0.80;;;11.70;99.90;;;;;;4999250;28;20091;-81
2024/01/24 12:05:21;;;;;;;5.13;1.08;;;11.70;99.90;;;;;;5013948;28;20034;-80
2024/01/24 12:07:47;;;;;;;4.30;1.23;;;11.60;99.90;;;;;;5016283;28;20053;-78
2024/01/24 12:10:13;;;;;;;4.68;1.10;;;11.60;99.90;;;;;;5009433;28;20149;-80
2024/01/24 12:12:40;;;;;;;3.63;1.10;;;11.70;99.90;;;;;;5013150;28;20037;-74
2024/01/24 12:15:07;;;;;;;7.53;1.73;;;11.60;99.90;;;;;;5004836;28;20034;-79
2024/01/24 12:17:38;;;;;;;14.02;1.17;;;11.50;99.90;;;;;;5014104;28;20243;-76
2024/01/24 12:20:05;;;;;;;6.32;1.20;;;11.50;99.90;;;;;;5012504;28;20235;-78
2024/01/24 12:22:31;;;;;;;9.25;1.20;;;11.50;99.90;;;;;;5014710;28;20404;-78
2024/01/24 12:25:00;;;;;;;4.38;1.20;;;11.40;99.90;;;;;;5006459;28;20053;-79
2024/01/24 12:27:26;;;;;;;6.25;1.10;;;11.40;99.90;;;;;;5016304;28;20522;-80
2024/01/24 12:29:53;;;;;;;7.20;1.75;;;11.40;99.90;;;;;;5014666;28;20124;-78
2024/01/24 12:32:21;;;;;;;9.73;1.35;;;11.50;99.90;;;;;;5011489;28;20323;-72
2024/01/24 12:34:47;;;;;;;1.27;0.52;;;11.50;99.90;;;;;;5013303;28;20037;-77
2024/01/24 12:37:14;;;;;;;3.75;0.90;;;11.50;99.90;;;;;;4997583;28;20056;-79
2024/01/24 12:39:42;;;;;;;5.53;1.05;;;11.50;99.90;;;;;;5018915;28;20346;-80
2024/01/24 12:42:07;;;;;;;6.63;0.85;;;11.40;99.90;;;;;;5012838;28;20049;-80
2024/01/24 12:44:35;;;;;;;11.27;1.02;;;11.40;99.90;;;;;;5015124;28;20428;-75